Time;durP1;ratioP1;P1;durP2;ratioP2;P2;SDS_P1;SDS_P2;PMS_P1;PMS_P2;Temp;Humidity;BMP_temperature;BMP_pressure;BME280_temperature;BME280_humidity;BME280_pressure;Samples;Min_cycle;Max_cycle;Signal;HPM_P1;HPM_P2
2022/06/15 00:01:05;;;;;;;4.40;2.15;;;25.60;99.90;;;;;;5091474;28;20209;-73
2022/06/15 00:03:34;;;;;;;3.08;1.95;;;25.60;99.90;;;;;;5091276;28;20298;-72
2022/06/15 00:06:07;;;;;;;4.05;2.63;;;25.60;99.90;;;;;;5092004;28;20202;-71
2022/06/15 00:08:34;;;;;;;3.88;2.20;;;25.50;99.90;;;;;;5091419;28;20602;-71
2022/06/15 00:11:06;;;;;;;5.20;3.00;;;25.50;99.90;;;;;;5091902;28;20202;-71
2022/06/15 00:13:33;;;;;;;3.78;2.38;;;25.50;99.90;;;;;;5091681;28;20213;-72
2022/06/15 00:16:00;;;;;;;2.40;2.13;;;25.50;99.90;;;;;;5091679;28;20235;-72
2022/06/15 00:18:28;;;;;;;3.00;2.22;;;25.50;99.90;;;;;;5091499;28;20206;-73
2022/06/15 00:20:56;;;;;;;4.65;1.92;;;25.40;99.90;;;;;;5083243;28;20619;-72
2022/06/15 00:23:24;;;;;;;5.38;2.03;;;25.40;99.90;;;;;;5091173;28;20205;-73
2022/06/15 00:25:52;;;;;;;5.50;2.38;;;25.40;99.90;;;;;;5091132;28;20346;-73
2022/06/15 00:28:20;;;;;;;6.47;2.63;;;25.30;99.90;;;;;;5090537;28;20228;-71
2022/06/15 00:30:49;;;;;;;4.47;2.30;;;25.40;99.90;;;;;;5078095;28;20259;-71
2022/06/15 00:33:19;;;;;;;4.22;2.45;;;25.40;99.90;;;;;;5090957;28;20202;-71
2022/06/15 00:35:55;;;;;;;3.80;1.83;;;25.40;99.90;;;;;;5091235;28;20232;-71
2022/06/15 00:38:24;;;;;;;3.40;2.28;;;25.30;99.90;;;;;;5077539;28;20301;-71
2022/06/15 00:40:51;;;;;;;2.92;2.00;;;25.20;99.90;;;;;;5090219;28;20259;-73
2022/06/15 00:43:31;;;;;;;5.47;3.17;;;25.10;99.90;;;;;;5090885;28;20257;-73
2022/06/15 00:45:59;;;;;;;3.50;1.92;;;25.10;99.90;;;;;;5091158;28;20575;-73
2022/06/15 00:48:26;;;;;;;4.80;2.40;;;25.00;99.90;;;;;;5090905;28;20225;-73
2022/06/15 00:50:53;;;;;;;5.53;2.13;;;24.90;99.90;;;;;;5090841;28;20274;-72
2022/06/15 00:53:20;;;;;;;4.38;2.13;;;24.80;99.90;;;;;;5090546;28;20455;-73
2022/06/15 00:55:50;;;;;;;4.90;2.10;;;24.90;99.90;;;;;;5076353;28;20210;-71
2022/06/15 00:58:17;;;;;;;5.70;1.60;;;24.80;99.90;;;;;;5091146;28;20205;-73
2022/06/15 01:00:44;;;;;;;2.42;2.20;;;24.80;99.90;;;;;;5090967;28;20254;-72
2022/06/15 01:03:13;;;;;;;4.10;1.90;;;24.70;99.90;;;;;;5090352;28;20205;-72
2022/06/15 01:05:49;;;;;;;3.25;2.30;;;24.60;99.90;;;;;;5090638;28;20689;-72
2022/06/15 01:08:23;;;;;;;4.70;2.70;;;24.60;99.90;;;;;;5090403;28;20221;-73
2022/06/15 01:11:03;;;;;;;12.60;3.13;;;24.60;99.90;;;;;;5090900;28;20213;-73
2022/06/15 01:13:55;;;;;;;4.45;2.72;;;24.60;99.90;;;;;;5065858;28;20266;-74
2022/06/15 01:16:31;;;;;;;9.07;2.63;;;24.50;99.90;;;;;;5089857;28;20624;-72
2022/06/15 01:19:08;;;;;;;13.52;2.92;;;24.50;99.90;;;;;;5090834;28;20205;-72
2022/06/15 01:21:40;;;;;;;5.45;2.90;;;24.50;99.90;;;;;;5090564;28;20201;-73
2022/06/15 01:24:40;;;;;;;4.05;2.33;;;24.50;99.90;;;;;;5090290;28;20205;-73
2022/06/15 01:27:43;;;;;;;8.73;2.90;;;24.50;99.90;;;;;;5065353;28;20278;-73
2022/06/15 01:30:30;;;;;;;4.80;3.60;;;24.40;99.90;;;;;;5073632;28;20225;-73
2022/06/15 01:33:07;;;;;;;4.85;3.03;;;24.40;99.90;;;;;;5090762;28;20205;-71
2022/06/15 01:35:42;;;;;;;5.72;2.95;;;24.30;99.90;;;;;;5091948;28;20196;-71
2022/06/15 01:38:22;;;;;;;2.75;2.47;;;24.40;99.90;;;;;;5094366;28;20204;-71
2022/06/15 01:40:56;;;;;;;3.80;2.45;;;24.30;99.90;;;;;;5094595;28;20624;-71
2022/06/15 01:43:28;;;;;;;4.07;2.55;;;24.30;99.90;;;;;;5093917;28;20270;-71
2022/06/15 01:45:58;;;;;;;7.03;2.63;;;24.40;99.90;;;;;;5094186;28;20198;-70
2022/06/15 01:48:27;;;;;;;4.88;2.55;;;24.30;99.90;;;;;;5094588;28;20233;-71
2022/06/15 01:50:59;;;;;;;4.90;2.50;;;24.30;99.90;;;;;;5094443;28;20262;-71
2022/06/15 01:53:31;;;;;;;5.82;2.72;;;24.30;99.90;;;;;;5094310;28;20251;-71
2022/06/15 01:56:06;;;;;;;2.55;2.35;;;24.30;99.90;;;;;;5094596;28;20201;-70
2022/06/15 01:58:36;;;;;;;6.50;2.58;;;24.20;99.90;;;;;;5094409;28;20209;-71
2022/06/15 02:01:12;;;;;;;10.35;3.53;;;24.20;99.90;;;;;;5093711;28;20201;-72
2022/06/15 02:03:46;;;;;;;4.70;2.10;;;24.20;99.90;;;;;;5094432;28;20205;-73
2022/06/15 02:06:22;;;;;;;3.55;2.67;;;24.20;99.90;;;;;;5066614;28;20292;-73
2022/06/15 02:08:53;;;;;;;3.83;2.63;;;24.20;99.90;;;;;;5093865;28;20599;-74
2022/06/15 02:11:27;;;;;;;4.53;3.00;;;24.20;99.90;;;;;;5093527;28;20213;-73
2022/06/15 02:14:01;;;;;;;4.63;2.78;;;24.20;99.90;;;;;;5094036;28;20209;-73
2022/06/15 02:16:33;;;;;;;3.35;2.38;;;24.20;99.90;;;;;;5094364;28;20205;-72
2022/06/15 02:19:01;;;;;;;2.45;2.25;;;24.10;99.90;;;;;;5094155;28;20232;-71
2022/06/15 02:21:29;;;;;;;3.83;2.38;;;24.10;99.90;;;;;;5094352;28;20197;-71
2022/06/15 02:24:00;;;;;;;5.32;2.55;;;24.00;99.90;;;;;;5094030;28;20210;-72
2022/06/15 02:26:31;;;;;;;4.63;2.40;;;24.00;99.90;;;;;;5093689;28;20205;-71
2022/06/15 02:29:03;;;;;;;5.60;2.35;;;23.90;99.90;;;;;;5085725;28;20230;-71
2022/06/15 02:31:31;;;;;;;5.65;2.88;;;24.00;99.90;;;;;;5088395;28;20267;-70
2022/06/15 02:33:59;;;;;;;2.72;2.53;;;24.00;99.90;;;;;;5094201;28;20208;-72
2022/06/15 02:36:26;;;;;;;5.13;2.17;;;23.80;99.90;;;;;;5093698;28;20213;-71
2022/06/15 02:38:53;;;;;;;3.63;3.17;;;23.70;99.90;;;;;;5093357;28;20197;-72
2022/06/15 02:41:21;;;;;;;5.03;2.50;;;23.70;99.90;;;;;;5093093;28;21021;-72
2022/06/15 02:43:53;;;;;;;3.42;2.28;;;23.70;99.90;;;;;;5093092;28;20206;-72
2022/06/15 02:46:22;;;;;;;3.35;2.45;;;23.70;99.90;;;;;;5093006;28;20213;-71
2022/06/15 02:48:52;;;;;;;7.60;4.43;;;23.70;99.90;;;;;;5093212;28;20278;-72
2022/06/15 02:51:26;;;;;;;3.17;2.80;;;23.60;99.90;;;;;;5093031;28;20201;-71
2022/06/15 02:53:57;;;;;;;6.90;2.28;;;23.60;99.90;;;;;;5093251;28;20205;-70
2022/06/15 02:56:25;;;;;;;2.80;2.40;;;23.60;99.90;;;;;;5092858;28;20205;-70
2022/06/15 02:58:57;;;;;;;3.92;2.42;;;23.60;99.90;;;;;;5092737;28;20213;-70
2022/06/15 03:01:24;;;;;;;2.80;2.47;;;23.60;99.90;;;;;;5092657;28;20738;-72
2022/06/15 03:03:53;;;;;;;6.47;2.60;;;23.60;99.90;;;;;;5093067;28;20206;-72
2022/06/15 03:06:27;;;;;;;2.95;2.10;;;23.70;99.90;;;;;;5092764;28;20205;-73
2022/06/15 03:08:55;;;;;;;4.80;2.00;;;23.60;99.90;;;;;;5092630;28;20224;-73
2022/06/15 03:11:24;;;;;;;2.85;2.25;;;23.50;99.90;;;;;;5092590;28;20216;-73
2022/06/15 03:13:51;;;;;;;5.90;2.40;;;23.50;99.90;;;;;;5092720;28;20216;-74
2022/06/15 03:16:18;;;;;;;4.47;2.50;;;23.50;99.90;;;;;;5092242;28;20258;-73
2022/06/15 03:18:46;;;;;;;4.70;2.70;;;23.50;99.90;;;;;;5092753;28;20235;-73
2022/06/15 03:21:15;;;;;;;4.28;2.33;;;23.50;99.90;;;;;;5092178;28;20255;-73
2022/06/15 03:23:42;;;;;;;6.30;2.30;;;23.50;99.90;;;;;;5092602;28;20209;-72
2022/06/15 03:26:09;;;;;;;5.35;2.33;;;23.40;99.90;;;;;;5092242;28;20334;-71
2022/06/15 03:28:36;;;;;;;6.45;2.63;;;23.40;99.90;;;;;;5087489;28;20209;-72
2022/06/15 03:31:04;;;;;;;3.53;2.88;;;23.40;99.90;;;;;;5083089;28;20274;-72
2022/06/15 03:33:31;;;;;;;2.80;2.60;;;23.50;99.90;;;;;;5092472;28;20270;-72
2022/06/15 03:35:58;;;;;;;9.18;2.80;;;23.50;99.90;;;;;;5092727;28;20254;-73
2022/06/15 03:38:27;;;;;;;4.93;2.42;;;23.50;99.90;;;;;;5091706;28;20205;-73
2022/06/15 03:40:55;;;;;;;5.18;2.65;;;23.50;99.90;;;;;;5092254;28;20241;-72
2022/06/15 03:43:22;;;;;;;6.40;2.60;;;23.50;99.90;;;;;;5091613;28;20274;-73
2022/06/15 03:45:49;;;;;;;9.80;2.60;;;23.60;99.90;;;;;;5092265;28;20202;-70
2022/06/15 03:48:16;;;;;;;8.77;3.08;;;23.50;99.90;;;;;;5091717;28;20201;-71
2022/06/15 03:50:44;;;;;;;11.23;2.60;;;23.50;99.90;;;;;;5091966;28;20241;-71
2022/06/15 03:53:11;;;;;;;6.25;2.97;;;23.50;99.90;;;;;;5091770;28;20259;-71
2022/06/15 03:55:41;;;;;;;6.57;3.45;;;23.40;99.90;;;;;;5091792;28;20259;-72
2022/06/15 03:58:10;;;;;;;8.60;3.20;;;23.40;99.90;;;;;;5091213;28;20197;-72
2022/06/15 04:00:37;;;;;;;5.75;2.60;;;23.30;99.90;;;;;;5076984;28;20263;-70
2022/06/15 04:03:06;;;;;;;3.28;2.90;;;23.30;99.90;;;;;;5077584;28;20274;-71
2022/06/15 04:05:37;;;;;;;8.20;3.17;;;23.30;99.90;;;;;;5080295;28;20210;-72
2022/06/15 04:10:51;;;;;;;6.90;2.83;;;23.30;99.90;;;;;;5086206;28;20308;-72
2022/06/15 04:13:20;;;;;;;5.00;2.47;;;23.20;99.90;;;;;;5089127;28;20700;-72
2022/06/15 04:15:48;;;;;;;6.97;3.47;;;23.00;99.90;;;;;;5088370;28;20247;-72
2022/06/15 04:18:15;;;;;;;6.20;2.67;;;22.80;99.90;;;;;;5069575;28;20209;-72
2022/06/15 04:20:42;;;;;;;6.70;3.58;;;22.80;99.90;;;;;;5090499;28;20210;-72
2022/06/15 04:23:11;;;;;;;4.78;3.22;;;22.80;99.90;;;;;;5090330;28;20209;-71
2022/06/15 04:25:42;;;;;;;3.67;2.55;;;22.80;99.90;;;;;;5078365;28;20202;-71
2022/06/15 04:28:12;;;;;;;5.75;3.92;;;22.80;99.90;;;;;;5071046;28;20291;-71
2022/06/15 04:30:40;;;;;;;4.65;2.95;;;22.80;99.90;;;;;;5071114;28;20229;-70
2022/06/15 04:33:09;;;;;;;3.63;2.50;;;22.90;99.90;;;;;;5071131;28;20255;-70
2022/06/15 04:35:37;;;;;;;5.60;3.13;;;22.80;99.90;;;;;;5058889;28;20202;-71
2022/06/15 04:38:04;;;;;;;6.00;2.97;;;22.70;99.90;;;;;;5071640;28;20271;-70
2022/06/15 04:40:31;;;;;;;6.25;2.90;;;22.70;99.90;;;;;;5073206;28;20263;-70
2022/06/15 04:42:59;;;;;;;6.13;3.17;;;22.70;99.90;;;;;;5073080;28;20673;-71
2022/06/15 04:45:27;;;;;;;4.95;3.35;;;22.60;99.90;;;;;;5075847;28;20705;-71
2022/06/15 04:47:54;;;;;;;3.72;2.92;;;22.60;99.90;;;;;;5073682;28;20202;-70
2022/06/15 04:50:21;;;;;;;3.38;2.83;;;22.60;99.90;;;;;;5076574;28;20237;-71
2022/06/15 04:52:48;;;;;;;5.90;4.85;;;22.50;99.90;;;;;;5074081;28;20662;-70
2022/06/15 04:55:18;;;;;;;4.65;3.03;;;22.60;99.90;;;;;;5075717;28;20258;-70
2022/06/15 04:57:45;;;;;;;2.67;2.17;;;22.60;99.90;;;;;;5074762;28;20285;-70
2022/06/15 05:00:17;;;;;;;6.93;3.63;;;22.80;99.90;;;;;;5078500;28;20254;-70
2022/06/15 05:02:46;;;;;;;4.00;3.05;;;22.90;99.90;;;;;;5074515;28;20636;-70
2022/06/15 05:05:13;;;;;;;5.72;3.85;;;23.00;99.90;;;;;;5079115;28;20259;-71
2022/06/15 05:07:41;;;;;;;5.22;3.70;;;23.10;99.90;;;;;;5077322;28;20740;-70
2022/06/15 05:10:13;;;;;;;7.68;4.93;;;23.20;99.90;;;;;;5077899;28;20732;-72
2022/06/15 05:12:40;;;;;;;4.95;2.92;;;23.20;99.90;;;;;;5079447;28;20206;-70
2022/06/15 05:15:08;;;;;;;3.38;3.08;;;23.30;99.90;;;;;;5069808;28;20267;-71
2022/06/15 05:17:35;;;;;;;3.78;3.42;;;23.50;99.90;;;;;;5077483;28;20259;-69
2022/06/15 05:20:05;;;;;;;6.90;3.63;;;23.60;99.90;;;;;;5075224;28;20228;-69
2022/06/15 05:22:32;;;;;;;7.47;3.40;;;23.60;99.90;;;;;;5066330;28;20209;-69
2022/06/15 05:24:59;;;;;;;6.20;4.32;;;23.70;99.90;;;;;;5063272;28;20206;-69
2022/06/15 05:27:26;;;;;;;5.90;4.45;;;23.70;99.90;;;;;;5075346;28;20206;-69
2022/06/15 05:29:53;;;;;;;6.25;4.53;;;23.60;99.90;;;;;;5062929;28;20273;-69
2022/06/15 05:32:20;;;;;;;6.55;3.65;;;23.70;99.90;;;;;;5070184;28;20210;-70
2022/06/15 05:34:47;;;;;;;13.13;4.20;;;23.80;99.90;;;;;;5070897;28;20327;-71
2022/06/15 05:37:15;;;;;;;8.43;3.85;;;23.90;99.90;;;;;;5069667;28;20206;-69
2022/06/15 05:39:42;;;;;;;9.85;3.47;;;24.00;99.90;;;;;;5071848;28;20217;-69
2022/06/15 05:42:09;;;;;;;11.05;4.85;;;24.10;99.90;;;;;;5069996;28;20264;-68
2022/06/15 05:44:43;;;;;;;9.95;5.30;;;24.20;99.90;;;;;;5072695;28;20206;-71
2022/06/15 05:47:11;;;;;;;10.98;5.03;;;24.10;99.90;;;;;;5070224;28;20293;-70
2022/06/15 05:49:38;;;;;;;7.40;4.40;;;24.10;99.90;;;;;;5073090;28;20214;-71
2022/06/15 05:52:05;;;;;;;11.05;4.65;;;24.30;99.90;;;;;;5069546;28;20213;-70
2022/06/15 05:54:34;;;;;;;10.07;4.05;;;24.40;99.90;;;;;;5074695;28;20210;-70
2022/06/15 05:57:01;;;;;;;8.90;4.95;;;24.50;99.90;;;;;;5079862;28;20270;-69
2022/06/15 05:59:28;;;;;;;15.35;4.80;;;24.70;99.90;;;;;;5075547;28;20206;-68
2022/06/15 06:01:54;;;;;;;12.05;4.72;;;24.80;99.90;;;;;;5080056;28;20740;-70
2022/06/15 06:04:22;;;;;;;9.48;5.03;;;24.90;99.90;;;;;;5076332;28;20202;-70
2022/06/15 06:06:50;;;;;;;9.43;5.53;;;25.00;99.90;;;;;;5080384;28;20206;-70
2022/06/15 06:09:17;;;;;;;10.95;6.88;;;25.10;99.90;;;;;;5078756;28;20206;-70
2022/06/15 06:11:45;;;;;;;15.15;7.50;;;25.20;99.90;;;;;;5073396;28;20345;-69
2022/06/15 06:14:12;;;;;;;11.25;7.75;;;25.20;99.90;;;;;;5081323;28;20210;-69
2022/06/15 06:16:39;;;;;;;12.48;8.95;;;25.10;99.90;;;;;;5081650;28;20229;-69
2022/06/15 06:19:06;;;;;;;11.20;8.90;;;24.90;99.90;;;;;;5074990;28;20248;-70
2022/06/15 06:21:33;;;;;;;12.10;7.35;;;24.90;99.90;;;;;;5082854;28;20727;-69
2022/06/15 06:24:00;;;;;;;9.82;7.90;;;24.90;99.90;;;;;;5086439;28;20652;-69
2022/06/15 06:26:30;;;;;;;12.07;9.70;;;24.90;99.90;;;;;;5073674;28;20202;-70
2022/06/15 06:28:59;;;;;;;10.75;9.18;;;25.00;99.90;;;;;;5066625;28;20194;-69
2022/06/15 06:31:27;;;;;;;13.48;9.73;;;25.00;99.90;;;;;;5068572;28;20639;-70
2022/06/15 06:33:54;;;;;;;12.38;9.25;;;24.90;99.90;;;;;;5074505;28;20198;-70
2022/06/15 06:36:28;;;;;;;11.63;8.77;;;25.00;99.90;;;;;;5074408;28;20256;-69
2022/06/15 06:38:55;;;;;;;13.90;9.38;;;25.20;99.90;;;;;;5074359;28;20291;-69
2022/06/15 06:41:25;;;;;;;15.23;8.85;;;25.30;99.90;;;;;;5065489;28;20325;-72
2022/06/15 06:43:53;;;;;;;11.90;9.65;;;25.40;99.90;;;;;;5066245;28;20666;-71
2022/06/15 06:46:21;;;;;;;11.30;10.13;;;25.60;99.90;;;;;;5072783;28;20206;-70
2022/06/15 06:48:49;;;;;;;14.75;9.63;;;25.50;99.90;;;;;;5072770;28;20283;-70
2022/06/15 06:51:16;;;;;;;11.50;9.95;;;25.50;99.90;;;;;;5072360;28;20287;-70
2022/06/15 06:53:43;;;;;;;8.60;7.00;;;25.50;99.90;;;;;;5072829;28;20201;-70
2022/06/15 06:56:12;;;;;;;9.30;5.85;;;25.60;99.90;;;;;;5071834;28;20259;-70
2022/06/15 06:58:39;;;;;;;7.70;6.80;;;25.70;99.90;;;;;;5072834;28;20210;-70
2022/06/15 07:01:06;;;;;;;11.95;9.68;;;25.90;99.90;;;;;;5072556;28;20241;-70
2022/06/15 07:03:34;;;;;;;9.00;4.50;;;25.90;99.90;;;;;;5072640;28;20218;-70
2022/06/15 07:06:02;;;;;;;3.33;2.28;;;25.90;99.90;;;;;;5072450;28;20268;-70
2022/06/15 07:08:29;;;;;;;5.60;3.03;;;25.90;99.90;;;;;;5072899;28;20631;-70
2022/06/15 07:10:56;;;;;;;7.75;3.53;;;26.20;99.90;;;;;;5071914;28;20229;-70
2022/06/15 07:13:24;;;;;;;5.43;2.88;;;26.30;99.90;;;;;;5070205;28;20210;-69
2022/06/15 07:15:51;;;;;;;3.17;2.35;;;26.40;99.90;;;;;;5070443;28;20261;-69
2022/06/15 07:18:18;;;;;;;4.82;2.45;;;26.40;99.90;;;;;;5072232;28;20282;-69
2022/06/15 07:20:46;;;;;;;5.85;4.13;;;26.40;99.90;;;;;;5072030;28;20220;-70
2022/06/15 07:23:13;;;;;;;4.45;2.60;;;26.50;99.90;;;;;;5072070;28;20209;-70
2022/06/15 07:25:40;;;;;;;4.43;2.40;;;26.40;99.90;;;;;;5072358;28;20256;-70
2022/06/15 07:28:08;;;;;;;3.50;2.97;;;26.60;99.90;;;;;;5071805;28;20262;-70
2022/06/15 07:30:35;;;;;;;4.90;2.70;;;26.60;99.90;;;;;;5079373;28;20226;-70
2022/06/15 07:33:02;;;;;;;7.03;3.75;;;26.90;99.90;;;;;;5091343;28;20201;-69
2022/06/15 07:35:34;;;;;;;6.85;3.10;;;26.80;99.90;;;;;;5092564;28;20255;-70
2022/06/15 07:38:02;;;;;;;10.65;3.90;;;27.20;99.90;;;;;;5092370;28;20664;-69
2022/06/15 07:40:29;;;;;;;2.88;2.03;;;27.20;99.90;;;;;;5092253;28;20645;-71
2022/06/15 07:42:57;;;;;;;2.92;2.42;;;27.30;99.90;;;;;;5092567;28;20258;-70
2022/06/15 07:45:25;;;;;;;5.10;1.85;;;27.50;99.90;;;;;;5091879;28;20197;-70
2022/06/15 07:50:38;;;;;;;2.35;1.90;;;27.60;99.90;;;;;;5091949;28;20736;-70
2022/06/15 07:53:10;;;;;;;5.10;2.65;;;27.70;99.90;;;;;;5091976;28;20251;-70
2022/06/15 07:55:40;;;;;;;3.45;2.00;;;28.70;99.90;;;;;;5091965;28;20198;-70
2022/06/15 07:58:08;;;;;;;2.53;2.17;;;28.70;99.90;;;;;;5091699;28;20258;-70
2022/06/15 08:00:37;;;;;;;3.00;2.15;;;28.50;99.90;;;;;;5091640;28;20205;-70
2022/06/15 08:03:04;;;;;;;4.68;2.03;;;28.30;99.90;;;;;;5091391;28;20325;-69
2022/06/15 08:05:36;;;;;;;3.63;2.33;;;28.60;99.90;;;;;;5092043;28;20312;-70
2022/06/15 08:08:04;;;;;;;4.22;2.42;;;29.10;99.90;;;;;;5091422;28;20241;-69
2022/06/15 08:10:34;;;;;;;6.05;2.35;;;29.00;99.90;;;;;;5091688;28;20224;-69
2022/06/15 08:13:01;;;;;;;2.63;2.15;;;29.10;99.90;;;;;;5091657;28;20210;-70
2022/06/15 08:15:29;;;;;;;2.63;2.35;;;28.90;99.90;;;;;;5092015;28;20266;-69
2022/06/15 08:17:58;;;;;;;4.07;2.58;;;28.70;99.90;;;;;;5091678;28;20206;-70
2022/06/15 08:20:31;;;;;;;4.10;2.35;;;28.70;99.90;;;;;;5091617;28;20212;-69
2022/06/15 08:23:02;;;;;;;4.30;2.13;;;28.80;99.90;;;;;;5091747;28;20296;-69
2022/06/15 08:25:35;;;;;;;2.90;2.05;;;28.80;99.90;;;;;;5091791;28;20209;-69
2022/06/15 08:28:03;;;;;;;4.18;2.45;;;28.80;99.90;;;;;;5091101;28;20239;-70
2022/06/15 08:30:30;;;;;;;4.30;2.33;;;28.80;99.90;;;;;;5077911;28;20205;-69
2022/06/15 08:32:57;;;;;;;5.57;2.70;;;28.70;99.90;;;;;;5091523;28;20577;-69
2022/06/15 08:35:24;;;;;;;6.72;2.20;;;28.60;99.90;;;;;;5058247;28;20202;-68
2022/06/15 08:37:51;;;;;;;4.07;2.42;;;29.00;99.90;;;;;;5063083;28;20289;-68
2022/06/15 08:40:18;;;;;;;4.30;3.22;;;29.10;99.90;;;;;;5067704;28;20633;-67
2022/06/15 08:42:56;;;;;;;4.45;2.00;;;29.10;99.90;;;;;;5072904;28;20202;-71
2022/06/15 08:45:31;;;;;;;3.95;2.65;;;29.30;99.90;;;;;;5075104;28;20263;-69
2022/06/15 08:48:40;;;;;;;5.47;2.70;;;29.60;99.90;;;;;;5056331;28;20202;-68
2022/06/15 08:51:16;;;;;;;4.32;2.40;;;29.40;99.90;;;;;;5054168;28;20288;-70
2022/06/15 08:53:51;;;;;;;4.47;3.00;;;29.30;99.90;;;;;;5074634;28;20743;-69
2022/06/15 08:56:25;;;;;;;3.00;2.35;;;29.90;99.90;;;;;;5073888;28;20201;-71
2022/06/15 08:59:07;;;;;;;9.30;2.67;;;29.90;99.90;;;;;;5078614;28;20201;-70
2022/06/15 09:01:45;;;;;;;6.25;2.22;;;30.20;99.90;;;;;;5075636;28;20631;-72
2022/06/15 09:04:22;;;;;;;3.22;2.25;;;31.00;99.90;;;;;;5077226;28;20201;-69
2022/06/15 09:07:01;;;;;;;3.92;2.60;;;31.20;99.90;;;;;;5074719;28;20200;-68
2022/06/15 09:09:44;;;;;;;6.30;2.70;;;31.60;99.90;;;;;;5077443;28;20206;-69
2022/06/15 09:15:42;;;;;;;8.20;3.72;;;31.00;99.90;;;;;;5033238;28;20287;-70
2022/06/15 09:18:17;;;;;;;2.97;1.55;;;30.70;99.90;;;;;;5066238;28;20213;-69
2022/06/15 09:20:47;;;;;;;4.95;2.33;;;30.80;99.90;;;;;;5071007;28;20200;-70
2022/06/15 09:23:20;;;;;;;5.85;2.85;;;31.10;99.90;;;;;;5076194;28;20205;-68
2022/06/15 09:25:52;;;;;;;2.75;2.00;;;32.50;99.90;;;;;;5079241;28;20217;-69
2022/06/15 09:28:25;;;;;;;4.10;3.15;;;34.80;99.90;;;;;;5073527;28;20213;-68
2022/06/15 09:30:55;;;;;;;6.13;2.20;;;37.80;99.90;;;;;;5069901;28;20228;-70
2022/06/15 09:33:29;;;;;;;4.15;1.95;;;36.50;99.90;;;;;;5070717;28;20276;-70
2022/06/15 09:36:02;;;;;;;5.82;2.25;;;37.70;99.90;;;;;;5071273;28;20201;-69
2022/06/15 09:38:30;;;;;;;3.80;2.50;;;38.30;99.90;;;;;;5073249;28;20205;-70
2022/06/15 09:41:02;;;;;;;4.30;2.47;;;36.50;99.90;;;;;;5072187;28;20669;-70
2022/06/15 09:43:40;;;;;;;3.72;2.22;;;37.50;99.90;;;;;;5070488;28;20202;-69
2022/06/15 09:46:15;;;;;;;3.42;1.75;;;37.20;99.90;;;;;;5072107;28;20213;-68
2022/06/15 09:48:56;;;;;;;8.60;2.00;;;36.10;99.90;;;;;;5072196;28;20205;-70
2022/06/15 09:51:31;;;;;;;4.18;2.00;;;35.70;99.90;;;;;;5071200;28;20225;-69
2022/06/15 09:54:06;;;;;;;4.68;1.90;;;36.40;99.90;;;;;;5077077;28;20201;-69
2022/06/15 09:56:34;;;;;;;5.93;2.53;;;35.40;99.90;;;;;;5078560;28;20201;-68
2022/06/15 09:59:06;;;;;;;2.55;1.65;;;36.00;99.90;;;;;;5082219;28;20198;-70
2022/06/15 10:01:40;;;;;;;3.38;1.70;;;35.40;99.90;;;;;;5082139;28;20213;-70
2022/06/15 10:04:14;;;;;;;5.32;1.88;;;38.20;99.90;;;;;;5082561;28;20201;-72
2022/06/15 10:06:46;;;;;;;4.03;2.53;;;38.50;99.90;;;;;;5083947;28;20243;-70
2022/06/15 10:09:16;;;;;;;2.22;2.00;;;38.00;99.90;;;;;;5083506;28;20201;-70
2022/06/15 10:11:46;;;;;;;3.42;1.83;;;40.90;99.90;;;;;;5084533;28;20602;-71
2022/06/15 10:14:24;;;;;;;3.15;1.80;;;41.10;99.90;;;;;;5083157;28;20209;-69
2022/06/15 10:16:57;;;;;;;3.63;1.70;;;40.50;99.90;;;;;;5071519;28;20248;-70
2022/06/15 10:19:25;;;;;;;3.08;1.67;;;43.10;99.90;;;;;;5073039;28;20202;-69
2022/06/15 10:21:55;;;;;;;3.05;1.80;;;43.60;99.90;;;;;;5073426;28;20202;-71
2022/06/15 10:24:26;;;;;;;4.77;2.03;;;42.50;99.90;;;;;;5070218;28;20438;-71
2022/06/15 10:27:11;;;;;;;6.55;3.08;;;40.80;99.90;;;;;;5075633;28;20251;-71
2022/06/15 10:29:38;;;;;;;4.35;2.08;;;42.00;99.90;;;;;;5077104;28;20209;-73
2022/06/15 10:32:23;;;;;;;6.60;4.75;;;40.70;99.90;;;;;;5062745;28;20222;-72
2022/06/15 10:35:09;;;;;;;6.88;2.45;;;41.20;99.90;;;;;;5070647;28;20211;-73
2022/06/15 10:37:40;;;;;;;2.30;2.10;;;41.20;99.90;;;;;;5062024;28;20625;-72
2022/06/15 10:40:22;;;;;;;4.57;2.20;;;36.90;99.90;;;;;;5069315;28;20699;-71
2022/06/15 10:42:53;;;;;;;6.78;2.20;;;35.40;99.90;;;;;;5073556;28;20714;-69
2022/06/15 10:45:24;;;;;;;3.65;2.33;;;34.20;99.90;;;;;;5075230;28;20200;-70
2022/06/15 10:47:58;;;;;;;4.25;2.08;;;34.00;99.90;;;;;;5074766;28;20220;-71
2022/06/15 10:50:28;;;;;;;2.63;1.92;;;33.70;99.90;;;;;;5074822;28;20205;-71
2022/06/15 10:52:58;;;;;;;2.83;1.63;;;33.30;99.90;;;;;;5075559;28;20272;-69
2022/06/15 11:04:14;;;;;;;4.28;1.83;;;33.60;99.90;;;;;;5074156;28;20255;-70
2022/06/15 11:06:45;;;;;;;5.07;2.15;;;34.00;99.90;;;;;;5079315;28;20683;-69
2022/06/15 11:09:28;;;;;;;4.63;2.20;;;33.90;99.90;;;;;;5079324;28;20666;-69
2022/06/15 11:11:57;;;;;;;2.80;2.40;;;34.00;99.90;;;;;;5081827;28;20231;-69
2022/06/15 11:14:28;;;;;;;6.72;2.83;;;33.70;99.90;;;;;;5067419;28;20966;-69
2022/06/15 11:20:06;;;;;;;5.10;2.22;;;34.00;99.90;;;;;;5072835;28;20283;-69
2022/06/15 11:22:34;;;;;;;5.88;2.35;;;34.00;99.90;;;;;;5072260;28;20209;-70
2022/06/15 11:25:07;;;;;;;10.20;3.72;;;34.10;99.90;;;;;;5072143;28;20204;-68
2022/06/15 11:27:40;;;;;;;2.25;1.85;;;34.00;99.90;;;;;;5066533;28;20220;-69
2022/06/15 11:30:20;;;;;;;4.72;2.15;;;34.00;99.90;;;;;;5075161;28;20197;-69
2022/06/15 11:32:53;;;;;;;6.00;2.22;;;34.30;99.90;;;;;;5092321;28;20263;-68
2022/06/15 11:35:31;;;;;;;5.63;2.13;;;34.30;99.90;;;;;;5091865;28;20205;-68
2022/06/15 11:38:03;;;;;;;4.65;2.42;;;34.40;99.90;;;;;;5092882;28;20244;-70
2022/06/15 11:40:40;;;;;;;5.45;2.40;;;34.40;99.90;;;;;;5092049;28;20208;-68
2022/06/15 11:43:15;;;;;;;5.75;3.17;;;34.00;99.90;;;;;;5080437;28;20254;-70
2022/06/15 11:45:54;;;;;;;5.15;2.72;;;34.10;99.90;;;;;;5076747;28;20212;-69
2022/06/15 11:48:30;;;;;;;4.32;2.88;;;34.10;99.90;;;;;;5066369;28;20209;-69
2022/06/15 11:51:08;;;;;;;2.95;1.83;;;34.00;99.90;;;;;;5061958;28;20193;-69
2022/06/15 11:53:44;;;;;;;4.28;2.35;;;34.30;99.90;;;;;;5073769;28;20240;-74
2022/06/15 11:56:16;;;;;;;6.72;2.88;;;34.50;99.90;;;;;;5078189;28;20251;-71
2022/06/15 11:58:58;;;;;;;5.35;2.42;;;34.50;99.90;;;;;;5078983;28;20205;-70
2022/06/15 12:01:40;;;;;;;5.38;2.45;;;34.10;99.90;;;;;;5075156;28;20897;-70
2022/06/15 12:04:34;;;;;;;4.60;2.15;;;34.30;99.90;;;;;;5080997;28;20205;-71
2022/06/15 12:07:08;;;;;;;5.03;2.67;;;34.40;99.90;;;;;;5069219;28;20200;-69
2022/06/15 12:09:47;;;;;;;5.78;3.05;;;34.10;99.90;;;;;;5077227;28;20618;-72
2022/06/15 12:12:39;;;;;;;6.07;3.08;;;34.30;99.90;;;;;;5070925;28;20232;-72
2022/06/15 12:15:27;;;;;;;4.80;2.53;;;34.80;99.90;;;;;;5074460;28;20213;-69
2022/06/15 12:18:03;;;;;;;9.85;2.88;;;34.90;99.90;;;;;;5077687;28;20200;-72
2022/06/15 12:20:43;;;;;;;3.60;1.98;;;34.10;99.90;;;;;;5079883;28;20589;-70
2022/06/15 12:23:26;;;;;;;4.00;2.38;;;34.40;99.90;;;;;;5068910;28;20262;-71
2022/06/15 12:26:01;;;;;;;5.95;2.88;;;34.40;99.90;;;;;;5071603;28;20250;-68
2022/06/15 12:28:37;;;;;;;7.05;2.45;;;34.50;99.90;;;;;;5076493;28;20289;-72
2022/06/15 12:31:10;;;;;;;7.57;4.10;;;34.90;99.90;;;;;;5083942;28;20200;-69
2022/06/15 12:33:42;;;;;;;3.13;2.20;;;34.90;99.90;;;;;;5080472;28;20775;-69
2022/06/15 12:36:14;;;;;;;5.03;2.33;;;35.20;99.90;;;;;;5063354;28;20729;-70
2022/06/15 12:38:53;;;;;;;6.22;2.75;;;34.30;99.90;;;;;;5078327;28;20734;-70
2022/06/15 12:44:18;;;;;;;8.05;2.60;;;34.80;99.90;;;;;;5083365;28;20265;-74
2022/06/15 12:46:47;;;;;;;7.60;2.08;;;35.30;99.90;;;;;;5087444;28;20200;-70
2022/06/15 12:49:26;;;;;;;6.07;2.78;;;35.00;99.90;;;;;;5086949;28;20236;-70
2022/06/15 12:52:00;;;;;;;7.55;2.50;;;35.30;99.90;;;;;;5088589;28;20224;-69
2022/06/15 12:54:40;;;;;;;7.65;3.03;;;35.70;99.90;;;;;;5065104;28;20254;-72
2022/06/15 12:57:14;;;;;;;5.82;2.83;;;35.40;99.90;;;;;;5087530;28;20215;-71
2022/06/15 12:59:51;;;;;;;3.20;2.55;;;35.30;99.90;;;;;;5090487;28;20265;-69
2022/06/15 13:02:23;;;;;;;7.53;3.10;;;34.90;99.90;;;;;;5077040;28;20217;-70
2022/06/15 13:05:06;;;;;;;6.50;2.90;;;35.10;99.90;;;;;;5070959;28;20993;-71
2022/06/15 13:07:34;;;;;;;13.38;3.00;;;35.10;99.90;;;;;;5072335;28;20201;-73
2022/06/15 13:10:22;;;;;;;6.70;2.63;;;35.30;99.90;;;;;;5072018;28;20210;-70
2022/06/15 13:12:54;;;;;;;6.57;2.72;;;35.30;99.90;;;;;;5067307;28;20225;-72
2022/06/15 13:15:27;;;;;;;8.27;3.83;;;35.40;99.90;;;;;;5072238;28;20205;-73
2022/06/15 13:18:07;;;;;;;5.05;2.60;;;35.30;99.90;;;;;;5067344;28;20616;-70
2022/06/15 13:20:36;;;;;;;6.40;2.83;;;35.30;99.90;;;;;;5070982;28;20212;-69
2022/06/15 13:23:15;;;;;;;7.18;3.95;;;35.40;99.90;;;;;;5072897;28;20208;-70
2022/06/15 13:25:52;;;;;;;7.68;3.47;;;35.60;99.90;;;;;;5070030;28;20205;-71
2022/06/15 13:28:23;;;;;;;5.00;2.85;;;35.90;99.90;;;;;;5069791;28;20566;-71
2022/06/15 13:30:58;;;;;;;5.10;2.83;;;35.90;99.90;;;;;;5079843;28;20202;-70